Startpagina
METAR-TAF:

METAR-TAF

Vliegvelden :

Flughafen Düsseldorf

Düsseldorf, Duitsland

breedte: 51-18N, lengte: 006-46E, hoogte: 45 m

Actueel weer

Dit bericht is 31 minuten geleden gemaakt, om 21:50 UTC
Wind 7 kt uit het noordwesten
Temperatuur 15°C
Vochtigheid 82%
Druk 1023 hPa
Zicht 10 km of meer
Weinig wolken op 1200 ft
Gebroken wolken op 1600 ft

METAR: EDDL 242150Z 32007KT 9999 FEW012 BKN016 15/12 Q1023 NOSIG

Tijdstip: 00:21 (22:21 UTC)

Verwachting

Dit bericht is 5 uur en het 21 minuten geleden gemaakt, om 17:00 UTC
Verwachting geldig van 24 om 18 UTC tot 25 om 24 UTC
Wind 8 kt uit het noordwesten
Zicht 10 km of meer
Gebroken wolken op 3000 ft
Wijzigt naar
van 24 om 23 UTC tot 25 om 02 UTC
Gebroken wolken op 1200 ft
Wijzigt naar
van 25 om 06 UTC tot 25 om 09 UTC
Verspreide wolken op 3000 ft

TAF: EDDL 241700Z 2418/2524 32008KT 9999 BKN030 BECMG 2423/2502 BKN012 BECMG 2506/2509 SCT030

Waarnemingen en weersverwachtingen van meer dan 4000 vliegvelden (METAR en TAF).

De beschikbare stations zijn de gele en rode punten op de kaart.

Ga met uw muis naar het station om de naam te zien.

Klik dan om waarnemingen en weersverwachtingen te zien.

kaart wijzigen: klik op de groene knoppen met een zwart kruis om in te zoomen, op de groene knop met een streepje om uit te zoomen of op de groene pijlen voor aangrenzende kaarten.


METAR-TAF: